Bemidji Regional Airport
KBJI : now visible

Aeroporto :











RITROVATECI SU...

 
LOGIN :

Iscrizione | Disclaimer

   EN    FR    IT 

 









Sommario :    VFR   VFR Marginale   IFR   IFR Intensivo   IFR Molto Intensivo
Visibilità : 
Base nubi : 
>= 8 km
>= 3000ft
5 / 8 km
1000 / 3000 ft
1500m / 5 km
500 / 1000 ft
800 / 1500m
200 / 500 ft
< 800m
< 200 ft
Simboli :   Temporali  Nebbia  Neve Forte  Precipitazioni Forti  Vento > 20 kt






- Altitudine del aeroporto : 1391 ft


KBJI - Bemidji Regional

ULTIMO METAR :
  • 201056Z AUTO 22004KT 7SM CLR M27/M29 A3058 RMK AO2 T12701292

METARs OBSOLETI :
  • 201035Z AUTO 00000KT 7SM CLR M29/M32 A3058 RMK AO2 T12921325
  • 201015Z AUTO 00000KT 3SM HZ CLR M28/M31 A3059 RMK AO2 T12851315
  • 200956Z AUTO 00000KT 10SM CLR M26/M29 A3059 RMK AO2 T12621288
  • 200936Z AUTO 21003KT 10SM CLR M26/M28 A3058 RMK AO2 T12601285
  • 200915Z AUTO 00000KT 10SM CLR M26/M29 A3059 RMK AO2 T12611286
  • 200836Z AUTO 21003KT 10SM CLR M26/M28 A3061 RMK AO2 T12601285

TAF KBJI
Valido dal 20 a 06 ore il 21 a 06 ore UTC


200520Z 2006/2106 VRB05KT P6SM SKC
FM201600 22011KT P6SM SKC



MetMap, La meteo Aeronautica in un colpo d'occhio ! - Copyright ORBIFLY Dicembre 2007 - Disclaimer

ORBIFLY MET'MAP TEAM :

Programmazione e sviluppo : Alexandra Zaïnal
Concezione : Baudouin d'Aumeries
Aiuto per la programmazione : Marc-Olivier Méhu
Supporto tecnico e logistico : Manuel Goepfert
Aiuto per la traduzione : Arnaldo La Scala

Contatto : metmap@orbifly.com




FONTI E CREDITI :

   NOAA       Earth
Advisory